Latest Weather Observations for Brisbane

IDQ60901

Issued at 12:01 am EST Monday 29 August 2016 (issued every 10 minutes, with the page automatically refreshed every 10 minutes)

About weather observations | Map of Brisbane area stations | Latest observations for Brisbane area | Other Formats
Station Details ID: 040913 Name: BRISBANE Lat: -27.48 Lon: 153.04 Height: 8.13 m
Data from the previous 72 hours. | See also: Recent months at Brisbane
Date/Time
EST
Temp
°C
App
Temp
°C
Dew
Point
°C
Rel
Hum
%
Delta-T
°C
Wind Press
QNH
hPa
Press
MSL
hPa
Rain since
9am
mm
Dir  Spd
km/h
Gust
km/h
Spd
kts
Gust
kts
28/11:30pm 12.2 12.5 10.9 92 0.7 CALM 0 0 0 0 1023.3 1023.3 0.0
28/11:00pm 12.4 12.7 11.0 91 0.7 CALM 0 0 0 0 1023.2 1023.2 0.0
28/10:30pm 12.8 13.2 11.2 90 0.8 CALM 0 0 0 0 1023.2 1023.2 0.0
28/10:00pm 13.1 13.5 11.2 88 1.0 CALM 0 0 0 0 1023.3 1023.3 0.0
28/09:30pm 13.6 14.1 11.5 87 1.1 CALM 0 0 0 0 1023.4 1023.4 0.0
28/09:00pm 14.0 14.5 11.5 85 1.3 CALM 0 0 0 0 1023.3 1023.3 0.0
28/08:30pm 14.4 14.8 11.4 82 1.6 CALM 0 0 0 0 1023.1 1023.1 0.0
28/08:00pm 15.0 15.6 11.8 81 1.7 CALM 0 0 0 0 1023.0 1023.0 0.0
28/07:30pm 15.9 16.4 11.7 76 2.3 CALM 0 2 0 1 1022.6 1022.6 0.0
28/07:00pm 16.9 17.1 11.8 72 2.8 NE 2 6 1 3 1022.3 1022.3 0.0
28/06:30pm 17.6 17.4 11.9 69 3.1 NE 4 6 2 3 1022.1 1022.1 0.0
28/06:00pm 18.4 17.9 11.9 66 3.6 ENE 6 9 3 5 1021.9 1021.9 0.0
28/05:30pm 19.0 18.2 11.1 60 4.3 NE 6 13 3 7 1021.6 1021.6 0.0
28/05:00pm 19.9 18.2 9.8 52 5.4 ENE 9 15 5 8 1021.4 1021.4 0.0
28/04:30pm 20.6 18.9 9.8 50 5.8 ENE 9 15 5 8 1020.9 1020.9 0.0
28/04:00pm 21.7 19.9 7.9 41 7.2 ENE 7 11 4 6 1020.5 1020.5 0.0
28/03:30pm 22.1 20.4 8.2 41 7.3 ENE 7 11 4 6 1020.7 1020.7 0.0
28/03:00pm 23.2 22.2 7.3 36 8.2 ENE 2 7 1 4 1020.9 1020.9 0.0
28/02:30pm 23.1 20.7 4.1 29 9.3 WSW 6 11 3 6 1021.0 1021.0 0.0
28/02:00pm 22.9 20.5 4.4 30 9.1 W 6 13 3 7 1021.1 1021.1 0.0
28/01:30pm 22.9 20.6 5.8 33 8.6 WNW 7 9 4 5 1021.1 1021.1 0.0
28/01:00pm 22.6 21.1 6.8 36 8.1 NNW 4 7 2 4 1021.6 1021.6 0.0
28/12:30pm 22.4 20.5 6.6 36 8.1 ENE 6 13 3 7 1022.1 1022.1 0.0
28/12:00pm 21.2 19.2 6.3 38 7.5 SE 6 13 3 7 1022.7 1022.7 0.0
28/11:30am 21.3 19.7 6.4 38 7.5 S 4 13 2 7 1023.5 1023.5 0.0
28/11:00am 20.4 18.2 6.4 40 7.0 SW 7 15 4 8 1024.0 1024.0 0.0
28/10:30am 19.3 17.2 6.8 44 6.3 W 7 17 4 9 1024.2 1024.2 0.0
28/10:00am 19.2 17.4 7.9 48 5.8 WSW 7 15 4 8 1024.3 1024.3 0.0
28/09:30am 17.9 15.6 7.3 50 5.3 WSW 9 15 5 8 1024.4 1024.4 0.0
28/09:00am 16.6 14.6 7.0 53 4.7 SW 7 13 4 7 1024.3 1024.3 0.0
28/08:30am 15.8 14.0 7.3 57 4.2 SW 6 13 3 7 1024.3 1024.3 0.0
28/08:00am 14.2 12.9 7.5 64 3.3 SW 4 9 2 5 1024.1 1024.1 0.0
28/07:30am 12.3 10.6 6.1 66 2.9 SW 4 9 2 5 1023.8 1023.8 0.0
28/07:00am 11.1 9.3 5.6 69 2.5 SW 4 9 2 5 1023.2 1023.2 0.0
28/06:30am 10.1 8.3 5.5 73 2.1 SW 4 9 2 5 1022.9 1022.9 0.0
28/06:00am 9.9 8.1 5.3 73 2.1 SSW 4 7 2 4 1022.7 1022.7 0.0
28/05:30am 9.9 8.1 5.5 74 2.0 SW 4 7 2 4 1022.3 1022.3 0.0
28/05:00am 10.2 8.0 5.4 72 2.2 SSW 6 9 3 5 1022.0 1022.0 0.0
28/04:30am 10.3 8.5 5.3 71 2.3 SW 4 9 2 5 1021.8 1021.8 0.0
28/04:00am 10.3 8.5 5.3 71 2.3 SW 4 9 2 5 1021.5 1021.5 0.0
28/03:30am 10.4 8.2 5.4 71 2.3 SW 6 9 3 5 1021.6 1021.6 0.0
28/03:00am 11.0 8.8 5.5 69 2.5 SSW 6 11 3 6 1021.4 1021.4 0.0
28/02:30am 11.2 9.0 5.3 67 2.7 SW 6 9 3 5 1021.6 1021.6 0.0
28/02:00am 11.1 9.3 5.4 68 2.6 WSW 4 7 2 4 1022.0 1022.0 0.0
28/01:30am 11.4 9.7 5.7 68 2.6 SSW 4 6 2 3 1022.0 1022.0 0.0
28/01:00am 11.2 9.8 5.5 68 2.6 SW 2 6 1 3 1021.7 1021.7 0.0
28/12:30am 12.1 10.3 5.3 63 3.1 SW 4 7 2 4 1021.9 1021.9 0.0
28/12:00am 12.0 10.7 5.9 66 2.8 SSW 2 2 1 1 1021.9 1021.9 0.0
 
Date/Time
EST
Temp
°C
App
Temp
°C
Dew
Point
°C
Rel
Hum
%
Delta-T
°C
Wind Press
QNH
hPa
Press
MSL
hPa
Rain since
9am
mm
Dir  Spd
km/h
Gust
km/h
Spd
kts
Gust
kts
27/11:30pm 12.6 11.6 5.8 63 3.2 CALM 0 0 0 0 1022.1 1022.1 0.0
27/11:00pm 13.7 12.1 6.3 61 3.5 WSW 4 9 2 5 1021.8 1021.8 0.0
27/10:30pm 13.3 11.8 5.2 58 3.8 WSW 2 4 1 2 1021.9 1021.9 0.0
27/10:00pm 13.8 12.0 5.4 57 3.9 WSW 4 6 2 3 1021.9 1021.9 0.0
27/09:30pm 13.9 12.3 6.3 60 3.6 SW 4 7 2 4 1021.7 1021.7 0.0
27/09:00pm 12.2 11.3 6.0 66 2.9 CALM 0 4 0 2 1021.4 1021.4 0.0
27/08:30pm 12.2 11.3 6.0 66 2.9 CALM 0 0 0 0 1021.1 1021.1 0.0
27/08:00pm 12.5 11.5 5.4 62 3.3 CALM 0 0 0 0 1021.0 1021.0 0.0
27/07:30pm 13.5 12.5 5.4 58 3.8 CALM 0 0 0 0 1020.8 1020.8 0.0
27/07:00pm 14.0 12.7 4.0 51 4.5 CALM 0 0 0 0 1020.4 1020.4 0.0
27/06:30pm 15.3 13.8 3.1 44 5.5 CALM 0 0 0 0 1019.9 1019.9 0.0
27/06:00pm 17.6 16.0 2.4 36 6.9 CALM 0 2 0 1 1019.5 1019.5 0.0
27/05:30pm 18.9 16.5 2.3 33 7.6 S 4 11 2 6 1019.0 1019.0 0.0
27/05:00pm 20.1 17.1 1.0 28 8.6 W 6 11 3 6 1018.6 1018.6 0.0
27/04:30pm 20.6 17.2 2.0 29 8.6 W 9 15 5 8 1018.2 1018.2 0.0
27/04:00pm 20.9 18.0 1.7 28 8.8 WSW 6 13 3 7 1018.0 1018.0 0.0
27/03:30pm 21.2 17.4 1.5 27 9.1 WSW 11 19 6 10 1018.0 1018.0 0.0
27/03:00pm 21.0 17.9 1.3 27 9.0 WSW 7 17 4 9 1017.9 1017.9 0.0
27/02:30pm 21.7 18.8 2.4 28 9.1 W 7 15 4 8 1017.9 1017.9 0.0
27/02:00pm 21.0 17.7 2.3 29 8.7 WSW 9 19 5 10 1018.1 1018.1 0.0
27/01:30pm 21.1 18.1 1.9 28 8.9 SW 7 17 4 9 1018.4 1018.4 0.0
27/01:00pm 20.2 16.8 1.6 29 8.5 WSW 9 20 5 11 1018.6 1018.6 0.0
27/12:30pm 20.0 16.8 2.8 32 8.0 W 9 17 5 9 1018.8 1018.8 0.0
27/12:00pm 19.6 15.6 2.9 33 7.8 W 13 22 7 12 1019.1 1019.1 0.0
27/11:30am 19.2 15.6 3.0 34 7.5 SW 11 20 6 11 1019.4 1019.4 0.0
27/11:00am 18.8 15.7 3.8 37 7.1 WSW 9 19 5 10 1019.8 1019.8 0.0
27/10:30am 18.1 14.6 3.6 38 6.8 SW 11 20 6 11 1020.3 1020.3 0.0
27/10:00am 17.5 14.4 3.8 40 6.4 WSW 9 20 5 11 1020.6 1020.6 0.0
27/09:30am 16.3 12.8 3.7 43 5.8 WSW 11 20 6 11 1020.5 1020.5 0.0
27/09:00am 15.8 13.0 3.3 43 5.7 SW 7 17 4 9 1020.5 1020.5 0.0
27/08:30am 15.4 12.3 3.5 45 5.4 WSW 9 17 5 9 1020.3 1020.3 0.0
27/08:00am 14.0 11.4 4.0 51 4.5 WSW 7 15 4 8 1020.1 1020.1 0.0
27/07:30am 12.5 10.4 4.0 56 3.8 WSW 4 9 2 5 1019.8 1019.8 0.0
27/07:00am 11.6 9.4 3.6 58 3.5 WSW 4 13 2 7 1019.7 1019.7 0.0
27/06:30am 10.6 8.8 3.6 62 3.1 SW 2 7 1 4 1019.5 1019.5 0.0
27/06:00am 10.7 8.9 3.5 61 3.1 WSW 2 11 1 6 1019.2 1019.2 0.0
27/05:30am 11.2 9.0 3.3 58 3.5 WSW 4 9 2 5 1019.0 1019.0 0.0
27/05:00am 11.5 8.9 3.3 57 3.6 WSW 6 11 3 6 1018.5 1018.5 0.0
27/04:30am 12.2 9.4 3.4 55 3.9 WSW 7 15 4 8 1018.2 1018.2 0.0
27/04:00am 11.9 9.4 3.9 58 3.6 WSW 6 15 3 8 1018.0 1018.0 0.0
27/03:30am 12.1 9.7 4.3 59 3.5 W 6 11 3 6 1017.7 1017.7 0.0
27/03:00am 12.1 9.7 4.3 59 3.5 WSW 6 13 3 7 1017.8 1017.8 0.0
27/02:30am 12.4 9.8 4.4 58 3.6 WSW 7 13 4 7 1017.9 1017.9 0.0
27/02:00am 12.7 10.1 4.2 56 3.8 WSW 7 17 4 9 1017.9 1017.9 0.0
27/01:30am 12.8 10.1 3.5 53 4.2 WSW 7 15 4 8 1017.7 1017.7 0.0
27/01:00am 12.7 9.5 3.1 52 4.2 WSW 9 17 5 9 1017.5 1017.5 0.0
27/12:30am 13.0 9.8 2.8 50 4.5 WSW 9 20 5 11 1017.4 1017.4 0.0
27/12:00am 13.0 10.1 2.8 50 4.5 WSW 7 15 4 8 1017.5 1017.5 0.0
 
Date/Time
EST
Temp
°C
App
Temp
°C
Dew
Point
°C
Rel
Hum
%
Delta-T
°C
Wind Press
QNH
hPa
Press
MSL
hPa
Rain since
9am
mm
Dir  Spd
km/h
Gust
km/h
Spd
kts
Gust
kts
26/11:30pm 13.4 10.2 3.2 50 4.5 W 9 17 5 9 1017.4 1017.4 0.0
26/11:00pm 13.5 10.3 3.0 49 4.7 W 9 20 5 11 1017.2 1017.2 0.0
26/10:30pm 13.9 10.3 3.1 48 4.8 W 11 20 6 11 1017.2 1017.2 0.0
26/10:00pm 14.5 10.9 3.0 46 5.1 W 11 22 6 12 1017.3 1017.3 0.0
26/09:30pm 14.9 10.9 2.8 44 5.4 W 13 22 7 12 1017.1 1017.1 0.0
26/09:00pm 15.5 11.4 2.3 41 5.9 W 13 24 7 13 1017.0 1017.0 0.0
26/08:30pm 15.9 12.1 1.6 38 6.3 W 11 20 6 11 1016.8 1016.8 0.0
26/08:00pm 15.8 12.7 1.5 38 6.3 W 7 15 4 8 1016.7 1016.7 0.0
26/07:30pm 16.0 13.2 2.1 39 6.2 W 6 13 3 7 1016.6 1016.6 0.0
26/07:00pm 16.5 13.8 2.5 39 6.3 W 6 11 3 6 1016.2 1016.2 0.0
26/06:30pm 16.1 13.9 3.2 42 5.9 W 4 9 2 5 1015.8 1015.8 0.0
26/06:00pm 15.9 14.2 4.0 45 5.5 W 2 6 1 3 1015.4 1015.4 0.0
26/05:30pm 17.2 15.8 3.8 41 6.2 CALM 0 0 0 0 1015.0 1015.0 0.0
26/05:00pm 18.8 17.2 4.6 39 6.8 WNW 2 6 1 3 1014.8 1014.8 0.0
26/04:30pm 18.4 16.1 4.6 40 6.6 WNW 6 7 3 4 1014.6 1014.6 0.0
26/04:00pm 18.6 17.1 5.1 41 6.5 N 2 6 1 3 1014.1 1014.1 0.0
26/03:30pm 18.8 16.0 5.3 41 6.6 ENE 9 13 5 7 1014.1 1014.1 0.0
26/03:00pm 19.6 18.4 6.4 42 6.6 ENE 2 6 1 3 1014.0 1014.0 0.0
26/02:30pm 19.2 17.5 6.0 42 6.5 ESE 4 9 2 5 1014.1 1014.1 0.0
26/02:00pm 19.4 17.8 4.7 38 7.1 E 2 7 1 4 1014.2 1014.2 0.0
26/01:30pm 19.9 18.4 4.8 37 7.3 NNW 2 6 1 3 1014.5 1014.5 0.0
26/01:00pm 19.9 18.4 4.8 37 7.3 WNW 2 6 1 3 1014.8 1014.8 0.0
26/12:30pm 19.5 17.6 4.8 38 7.1 S 4 9 2 5 1015.1 1015.1 0.0
26/12:00pm 19.5 17.3 5.2 39 7.0 SSW 6 13 3 7 1015.6 1015.6 0.0
26/11:30am 18.8 16.3 3.8 37 7.1 SW 6 15 3 8 1016.2 1016.2 0.0
26/11:00am 18.4 15.9 4.6 40 6.6 S 7 13 4 7 1016.5 1016.5 0.0
26/10:30am 17.7 15.5 5.3 44 6.0 SW 6 11 3 6 1016.7 1016.7 0.0
26/10:00am 16.8 14.1 5.4 47 5.5 WSW 9 20 5 11 1017.2 1017.2 0.0
26/09:30am 16.3 13.5 5.3 48 5.3 SW 9 20 5 11 1017.5 1017.5 0.0
26/09:00am 15.5 13.5 6.2 54 4.5 WSW 6 17 3 9 1017.8 1017.8 0.0
26/08:30am 14.4 12.0 5.2 54 4.3 WSW 7 19 4 10 1017.9 1017.9 0.0
26/08:00am 13.3 11.6 5.9 61 3.5 SW 4 7 2 4 1018.0 1018.0 0.0
26/07:30am 12.1 10.0 5.9 66 2.9 SW 6 9 3 5 1017.9 1017.9 0.0
26/07:00am 10.8 9.5 6.0 72 2.2 SW 2 9 1 5 1017.5 1017.5 0.0
26/06:30am 9.6 8.3 6.0 78 1.7 SW 2 7 1 4 1017.3 1017.3 0.0
26/06:00am 9.3 7.9 5.5 77 1.7 SW 2 6 1 3 1016.9 1016.9 0.0
26/05:30am 9.9 8.5 5.5 74 2.0 WSW 2 7 1 4 1016.6 1016.6 0.0
26/05:00am 10.3 8.9 5.3 71 2.3 SW 2 7 1 4 1016.1 1016.1 0.0
26/04:30am 10.5 9.0 5.1 69 2.5 SW 2 7 1 4 1015.8 1015.8 0.0
26/04:00am 10.8 8.9 4.9 67 2.7 WSW 4 13 2 7 1015.5 1015.5 0.0
26/03:30am 11.2 9.3 5.1 66 2.8 WSW 4 9 2 5 1015.3 1015.3 0.0
26/03:00am 11.4 9.2 5.1 65 2.9 WSW 6 17 3 9 1015.3 1015.3 0.0
26/02:30am 11.5 9.0 4.9 64 3.0 WSW 7 11 4 6 1015.3 1015.3 0.0
26/02:00am 11.8 9.5 5.0 63 3.1 WSW 6 13 3 7 1015.4 1015.4 0.0
26/01:30am 12.3 9.8 4.8 60 3.4 WSW 7 15 4 8 1015.6 1015.6 0.0
26/01:00am 12.4 9.9 4.9 60 3.4 WSW 7 19 4 10 1015.5 1015.5 0.0
26/12:30am 12.6 9.7 4.8 59 3.6 WSW 9 20 5 11 1015.6 1015.6 0.0

Latest Capital City Observations: Canberra | Sydney | Melbourne | Brisbane | Adelaide | Perth | Hobart | Darwin

Other Formats:

Comma delimited format used in spreadsheet applications
http://www.bom.gov.au/fwo/IDQ60901/IDQ60901.94576.axf

JavaScript Object Notation format (JSON) in row-major order
http://www.bom.gov.au/fwo/IDQ60901/IDQ60901.94576.json